Time;durP1;ratioP1;P1;durP2;ratioP2;P2;SDS_P1;SDS_P2;PMS_P1;PMS_P2;Temp;Humidity;BMP_temperature;BMP_pressure;BME280_temperature;BME280_humidity;BME280_pressure;Samples;Min_cycle;Max_cycle;Signal;HPM_P1;HPM_P2
2020/12/05 00:01:38;;;;;;;27.93;21.33;;;8.50;56.10;;;;;;5061362;28;20206;-41
2020/12/05 00:04:03;;;;;;;25.53;19.03;;;8.50;56.00;;;;;;5070444;28;20686;-41
2020/12/05 00:06:29;;;;;;;27.10;20.80;;;8.50;56.00;;;;;;5060983;28;20315;-41
2020/12/05 00:08:54;;;;;;;30.97;19.67;;;8.60;56.00;;;;;;5070981;28;20617;-41
2020/12/05 00:11:29;;;;;;;34.20;21.17;;;8.60;55.70;;;;;;5061590;28;20231;-41
2020/12/05 00:13:55;;;;;;;34.60;18.97;;;8.70;55.70;;;;;;5062818;28;20214;-40
2020/12/05 00:16:21;;;;;;;33.03;21.40;;;8.60;55.50;;;;;;5064848;28;20488;-40
2020/12/05 00:18:47;;;;;;;31.30;21.20;;;8.70;55.50;;;;;;5059757;28;20950;-41
2020/12/05 00:21:18;;;;;;;28.30;19.63;;;8.70;55.50;;;;;;5062839;28;20698;-41
2020/12/05 00:23:43;;;;;;;31.50;20.83;;;8.70;55.40;;;;;;5065237;28;20484;-40
2020/12/05 00:26:13;;;;;;;30.67;19.47;;;8.70;55.30;;;;;;5064208;28;20938;-41
2020/12/05 00:28:38;;;;;;;27.97;19.80;;;8.70;55.40;;;;;;5067300;28;20280;-40
2020/12/05 00:31:04;;;;;;;28.77;19.87;;;8.70;55.40;;;;;;5068982;28;20586;-41
2020/12/05 00:33:29;;;;;;;32.50;20.33;;;8.70;55.30;;;;;;5067786;28;20212;-41
2020/12/05 00:35:55;;;;;;;29.80;19.10;;;8.70;55.40;;;;;;5067398;28;20203;-41
2020/12/05 00:38:21;;;;;;;33.20;21.93;;;8.70;55.40;;;;;;5061473;28;20266;-41
2020/12/05 00:40:46;;;;;;;32.47;21.00;;;8.70;55.40;;;;;;5060141;28;20548;-41
2020/12/05 00:43:12;;;;;;;33.30;21.37;;;8.70;55.30;;;;;;5066531;28;20249;-41
2020/12/05 00:45:37;;;;;;;27.10;18.97;;;8.80;55.20;;;;;;5061537;28;21012;-41
2020/12/05 00:48:03;;;;;;;30.37;20.30;;;8.70;55.30;;;;;;5059333;28;20192;-41
2020/12/05 00:50:28;;;;;;;30.80;19.70;;;8.70;55.40;;;;;;5055676;28;20214;-41
2020/12/05 00:52:54;;;;;;;29.83;20.13;;;8.70;55.50;;;;;;5057058;28;20594;-41
2020/12/05 00:55:19;;;;;;;31.60;20.83;;;8.70;55.40;;;;;;5052191;28;20196;-41
2020/12/05 00:57:45;;;;;;;29.07;19.67;;;8.70;55.40;;;;;;5066028;28;20195;-41
2020/12/05 01:00:12;;;;;;;28.77;19.23;;;8.70;55.40;;;;;;5053599;28;20246;-41
2020/12/05 01:02:37;;;;;;;33.30;20.60;;;8.60;55.40;;;;;;5063434;28;20216;-41
2020/12/05 01:05:04;;;;;;;28.40;18.50;;;8.60;55.50;;;;;;5067406;28;20469;-40
2020/12/05 01:07:29;;;;;;;26.63;18.97;;;8.60;55.50;;;;;;5068033;28;20240;-41
2020/12/05 01:09:55;;;;;;;25.40;18.20;;;8.70;55.60;;;;;;5058885;28;20438;-40
2020/12/05 01:12:21;;;;;;;28.03;19.70;;;8.70;55.40;;;;;;5061278;28;20231;-40
2020/12/05 01:14:48;;;;;;;36.30;19.50;;;8.70;55.40;;;;;;5064338;28;20624;-41
2020/12/05 01:17:14;;;;;;;34.30;20.90;;;8.70;55.40;;;;;;5062415;28;21120;-41
2020/12/05 01:19:39;;;;;;;26.50;19.13;;;8.70;55.40;;;;;;5063706;28;20435;-41
2020/12/05 01:22:05;;;;;;;29.90;19.30;;;8.80;55.40;;;;;;5066339;28;20198;-41
2020/12/05 01:24:30;;;;;;;28.93;19.50;;;8.80;55.30;;;;;;5067802;28;20664;-41
2020/12/05 01:26:56;;;;;;;32.47;22.10;;;8.90;55.10;;;;;;5058944;28;20191;-41
2020/12/05 01:29:21;;;;;;;27.53;18.93;;;8.90;55.00;;;;;;5068200;28;20245;-41
2020/12/05 01:31:48;;;;;;;27.17;18.57;;;8.80;55.00;;;;;;5062580;28;20231;-41
2020/12/05 01:34:17;;;;;;;28.10;19.80;;;8.90;55.10;;;;;;5060709;28;20659;-40
2020/12/05 01:36:46;;;;;;;26.40;19.80;;;8.90;55.00;;;;;;5059140;28;20446;-41
2020/12/05 01:39:12;;;;;;;26.53;18.07;;;8.90;55.00;;;;;;5066826;28;20442;-41
2020/12/05 01:41:38;;;;;;;26.13;19.17;;;8.90;55.20;;;;;;5055344;28;21137;-41
2020/12/05 01:44:04;;;;;;;31.37;19.60;;;8.70;55.40;;;;;;5063293;28;20446;-40
2020/12/05 01:46:38;;;;;;;30.40;21.10;;;8.70;55.50;;;;;;5060865;28;20941;-41
2020/12/05 01:49:06;;;;;;;29.23;19.10;;;8.70;55.60;;;;;;5058060;28;20198;-41
2020/12/05 01:51:31;;;;;;;32.97;20.50;;;8.70;55.70;;;;;;5055468;28;20486;-41
2020/12/05 01:53:57;;;;;;;32.20;21.33;;;8.70;55.50;;;;;;5059490;28;20451;-40
2020/12/05 01:56:27;;;;;;;31.90;22.00;;;8.80;55.40;;;;;;5057940;28;20271;-41
2020/12/05 01:58:53;;;;;;;26.60;19.10;;;8.80;55.30;;;;;;5055270;28;20201;-41
2020/12/05 02:01:24;;;;;;;30.73;19.50;;;8.80;55.40;;;;;;5067370;28;20437;-40
2020/12/05 02:03:54;;;;;;;31.97;21.20;;;8.70;55.50;;;;;;5057481;28;20937;-41
2020/12/05 02:06:44;;;;;;;28.40;19.40;;;8.70;55.60;;;;;;5063056;28;20879;-40
2020/12/05 02:09:25;;;;;;;29.43;19.87;;;8.70;55.70;;;;;;5060675;28;20434;-41
2020/12/05 02:12:17;;;;;;;28.20;19.63;;;8.70;55.80;;;;;;5055079;28;20493;-41
2020/12/05 02:14:44;;;;;;;30.87;19.90;;;8.70;55.90;;;;;;5059232;28;20549;-41
2020/12/05 02:17:12;;;;;;;26.87;18.83;;;8.70;56.00;;;;;;5059975;28;20489;-41
2020/12/05 02:19:50;;;;;;;28.57;19.63;;;8.70;56.00;;;;;;5069532;28;21445;-41
2020/12/05 02:22:22;;;;;;;31.53;21.03;;;8.70;56.30;;;;;;5067102;28;20434;-40
2020/12/05 02:24:49;;;;;;;32.80;19.33;;;8.70;56.50;;;;;;5066736;28;20434;-41
2020/12/05 02:27:16;;;;;;;30.90;20.33;;;8.70;56.60;;;;;;5059604;28;20458;-41
2020/12/05 02:29:41;;;;;;;27.37;18.30;;;8.70;56.60;;;;;;5054290;28;20806;-41
2020/12/05 02:32:07;;;;;;;29.37;19.10;;;8.60;56.50;;;;;;5050783;28;20498;-41
2020/12/05 02:34:34;;;;;;;28.10;19.80;;;8.60;56.90;;;;;;5065092;28;20204;-41
2020/12/05 02:37:13;;;;;;;33.43;20.87;;;8.50;57.10;;;;;;5059494;28;20231;-41
2020/12/05 02:39:43;;;;;;;26.53;19.30;;;8.50;57.20;;;;;;5055875;28;20864;-40
2020/12/05 02:42:13;;;;;;;29.60;20.40;;;8.40;57.20;;;;;;5054511;28;20454;-41
2020/12/05 02:44:52;;;;;;;31.13;19.90;;;8.50;57.30;;;;;;5057095;28;20525;-40
2020/12/05 02:47:19;;;;;;;29.30;19.37;;;8.60;57.30;;;;;;5061198;28;20473;-41
2020/12/05 02:49:45;;;;;;;27.93;19.90;;;8.60;57.20;;;;;;5071520;28;20496;-41
2020/12/05 02:52:11;;;;;;;35.27;20.73;;;8.60;57.30;;;;;;5061578;28;20895;-40
2020/12/05 02:54:36;;;;;;;29.60;20.73;;;8.60;57.40;;;;;;5060785;28;20441;-41
2020/12/05 02:57:03;;;;;;;32.47;21.47;;;8.60;57.40;;;;;;5071360;28;20867;-40
2020/12/05 02:59:29;;;;;;;31.90;22.13;;;8.60;57.30;;;;;;5065762;28;20532;-41
2020/12/05 03:01:56;;;;;;;28.17;20.27;;;8.50;57.10;;;;;;5059092;28;20813;-41
2020/12/05 03:04:22;;;;;;;32.63;21.00;;;8.50;57.40;;;;;;5066099;28;20422;-41
2020/12/05 03:06:47;;;;;;;31.90;19.77;;;8.40;57.50;;;;;;5062539;28;20480;-41
2020/12/05 03:09:13;;;;;;;30.10;20.20;;;8.40;57.70;;;;;;5065926;28;20451;-41
2020/12/05 03:11:40;;;;;;;32.10;20.90;;;8.50;57.80;;;;;;5072794;28;20273;-41
2020/12/05 03:14:05;;;;;;;33.13;20.53;;;8.50;57.80;;;;;;5071075;28;20455;-41
2020/12/05 03:16:31;;;;;;;26.03;19.97;;;8.50;57.70;;;;;;5063572;28;20437;-41
2020/12/05 03:18:57;;;;;;;26.70;18.10;;;8.40;57.70;;;;;;5069042;28;20188;-41
2020/12/05 03:21:22;;;;;;;28.80;20.00;;;8.40;57.80;;;;;;5062694;28;20192;-41
2020/12/05 03:23:48;;;;;;;38.60;21.67;;;8.40;57.80;;;;;;5070672;28;20241;-41
2020/12/05 03:26:14;;;;;;;27.63;19.90;;;8.40;57.80;;;;;;5064839;28;20215;-41
2020/12/05 03:28:41;;;;;;;25.73;19.03;;;8.40;57.90;;;;;;5065511;28;20200;-41
2020/12/05 03:31:07;;;;;;;26.47;17.90;;;8.40;57.90;;;;;;5064124;28;20665;-41
2020/12/05 03:33:35;;;;;;;26.60;19.77;;;8.30;57.90;;;;;;5068751;28;20913;-41
2020/12/05 03:36:01;;;;;;;26.43;18.47;;;8.20;58.10;;;;;;5063831;28;20459;-41
2020/12/05 03:38:26;;;;;;;28.70;19.07;;;8.30;58.30;;;;;;5067052;28;20438;-41
2020/12/05 03:40:52;;;;;;;32.57;18.37;;;8.30;58.50;;;;;;5065775;28;20671;-41
2020/12/05 03:43:17;;;;;;;23.77;17.53;;;8.20;58.30;;;;;;5056988;28;20203;-41
2020/12/05 03:45:43;;;;;;;28.03;18.63;;;8.20;58.40;;;;;;5058788;28;20253;-41
2020/12/05 03:48:12;;;;;;;27.80;20.83;;;8.20;58.30;;;;;;5070571;28;20203;-41
2020/12/05 03:50:38;;;;;;;28.67;20.20;;;8.20;58.20;;;;;;5053999;28;20282;-41
2020/12/05 03:53:04;;;;;;;28.20;19.00;;;8.00;58.60;;;;;;5066363;28;20445;-41
2020/12/05 03:55:29;;;;;;;29.77;19.37;;;7.70;59.20;;;;;;5063958;28;20451;-41
2020/12/05 03:57:55;;;;;;;27.40;18.77;;;7.70;59.50;;;;;;5057692;28;20647;-41
2020/12/05 04:00:20;;;;;;;24.70;18.40;;;7.80;59.40;;;;;;5065017;28;20188;-41
2020/12/05 04:02:46;;;;;;;29.27;20.50;;;7.90;59.30;;;;;;5065778;28;20190;-41
2020/12/05 04:05:11;;;;;;;29.40;18.63;;;8.00;59.10;;;;;;5061155;28;20199;-41
2020/12/05 04:07:37;;;;;;;27.20;18.83;;;8.00;58.90;;;;;;5061984;28;20236;-41
2020/12/05 04:10:03;;;;;;;28.07;18.93;;;8.10;58.80;;;;;;5062869;28;20203;-41
2020/12/05 04:12:29;;;;;;;27.10;18.30;;;8.10;58.70;;;;;;5071603;28;20263;-41
2020/12/05 04:14:54;;;;;;;27.80;18.70;;;8.00;58.90;;;;;;5055749;28;20501;-41
2020/12/05 04:17:20;;;;;;;25.53;16.67;;;8.00;59.20;;;;;;5055859;28;20237;-41
2020/12/05 04:19:47;;;;;;;25.57;17.97;;;8.00;59.10;;;;;;5063331;28;20727;-41
2020/12/05 04:22:13;;;;;;;24.07;16.87;;;8.00;59.00;;;;;;5068583;28;20270;-41
2020/12/05 04:24:39;;;;;;;25.33;17.07;;;8.00;59.00;;;;;;5061156;28;20549;-41
2020/12/05 04:27:04;;;;;;;23.90;16.17;;;8.00;59.20;;;;;;5065417;28;20195;-41
2020/12/05 04:29:30;;;;;;;23.63;15.83;;;7.90;59.40;;;;;;5060928;28;20394;-41
2020/12/05 04:31:55;;;;;;;22.03;16.20;;;8.00;59.60;;;;;;5056956;28;20683;-41
2020/12/05 04:34:21;;;;;;;22.23;15.50;;;8.00;59.50;;;;;;5063227;28;20199;-41
2020/12/05 04:36:46;;;;;;;18.50;13.70;;;8.00;59.50;;;;;;5065004;28;20218;-41
2020/12/05 04:39:12;;;;;;;17.00;12.53;;;8.00;59.50;;;;;;5054466;28;20199;-41
2020/12/05 04:41:41;;;;;;;18.47;14.47;;;8.00;59.40;;;;;;5066881;28;20200;-41
2020/12/05 04:44:09;;;;;;;15.13;12.20;;;8.10;59.50;;;;;;5059702;28;20671;-41
2020/12/05 04:46:35;;;;;;;19.90;12.70;;;8.00;59.60;;;;;;5065169;28;20446;-41
2020/12/05 04:49:01;;;;;;;17.13;12.33;;;7.90;60.00;;;;;;5061957;28;20442;-41
2020/12/05 04:51:34;;;;;;;13.57;12.10;;;7.90;60.40;;;;;;5055703;28;20718;-41
2020/12/05 04:54:03;;;;;;;16.27;11.30;;;7.90;60.20;;;;;;5063445;28;20453;-41
2020/12/05 04:56:37;;;;;;;14.77;11.83;;;7.90;60.20;;;;;;5058711;28;20451;-41
2020/12/05 04:59:05;;;;;;;16.33;11.60;;;7.90;60.20;;;;;;5061439;28;20944;-41
2020/12/05 05:01:35;;;;;;;11.60;10.40;;;7.90;60.10;;;;;;5058619;28;20922;-41
2020/12/05 05:04:01;;;;;;;13.60;10.70;;;8.00;60.60;;;;;;5058617;28;20790;-41
2020/12/05 05:06:27;;;;;;;15.70;11.60;;;8.00;60.30;;;;;;5065053;28;20510;-41
2020/12/05 05:08:53;;;;;;;14.50;11.27;;;8.00;60.10;;;;;;5057756;28;20481;-41
2020/12/05 05:11:19;;;;;;;13.70;11.17;;;8.10;60.40;;;;;;5058130;28;20227;-41
2020/12/05 05:14:05;;;;;;;15.90;12.50;;;8.20;60.30;;;;;;5069119;28;20196;-41
2020/12/05 05:16:31;;;;;;;18.37;13.70;;;8.20;60.20;;;;;;5062843;28;20442;-41
2020/12/05 05:19:17;;;;;;;23.60;17.47;;;8.20;59.90;;;;;;5056880;28;21092;-41
2020/12/05 05:21:42;;;;;;;25.50;15.40;;;8.20;59.90;;;;;;5058402;28;20180;-41
2020/12/05 05:24:16;;;;;;;22.47;16.10;;;8.10;59.60;;;;;;5064998;28;20487;-41
2020/12/05 05:26:43;;;;;;;16.40;14.27;;;8.20;59.80;;;;;;5055828;28;20196;-41
2020/12/05 05:29:23;;;;;;;17.70;12.07;;;8.10;59.70;;;;;;5056033;28;20532;-41
2020/12/05 05:31:53;;;;;;;15.27;12.63;;;7.90;60.30;;;;;;5053423;28;20481;-41
2020/12/05 05:34:20;;;;;;;14.63;12.03;;;7.80;60.70;;;;;;5059688;28;20923;-41
2020/12/05 05:36:46;;;;;;;15.33;12.60;;;7.80;61.30;;;;;;5070737;28;20473;-41
2020/12/05 05:39:14;;;;;;;16.80;11.63;;;7.90;61.40;;;;;;5063706;28;20852;-41
2020/12/05 05:41:45;;;;;;;16.57;14.30;;;8.00;61.20;;;;;;5066774;28;20219;-41
2020/12/05 05:44:13;;;;;;;22.13;15.17;;;8.00;61.00;;;;;;5057888;28;20478;-41
2020/12/05 05:46:46;;;;;;;22.83;15.03;;;8.10;60.60;;;;;;5065515;28;20790;-41
2020/12/05 05:49:13;;;;;;;17.93;15.20;;;8.00;60.50;;;;;;5065951;28;20434;-41
2020/12/05 05:51:41;;;;;;;18.97;14.53;;;7.90;60.70;;;;;;5054056;28;20548;-41
2020/12/05 05:54:20;;;;;;;18.43;12.70;;;8.00;60.80;;;;;;5057718;28;20499;-41
2020/12/05 05:57:13;;;;;;;15.60;12.03;;;8.00;60.90;;;;;;5062822;28;20775;-41
2020/12/05 05:59:41;;;;;;;18.47;14.00;;;8.00;60.90;;;;;;5052965;28;20450;-41
2020/12/05 06:02:09;;;;;;;18.40;13.80;;;8.00;61.00;;;;;;5058769;28;20434;-41
2020/12/05 06:04:42;;;;;;;21.30;14.43;;;8.00;60.70;;;;;;5065883;28;20442;-41
2020/12/05 06:07:12;;;;;;;19.10;12.70;;;8.10;60.50;;;;;;5058100;28;20989;-41
2020/12/05 06:09:50;;;;;;;19.10;14.83;;;8.20;60.20;;;;;;5065646;28;20453;-41
2020/12/05 06:12:19;;;;;;;17.30;12.00;;;8.20;60.10;;;;;;5057084;28;20482;-42
2020/12/05 06:14:45;;;;;;;23.00;14.53;;;8.20;60.60;;;;;;5064715;28;20516;-41
2020/12/05 06:17:11;;;;;;;16.77;12.43;;;8.20;63.50;;;;;;5064396;28;20453;-42
2020/12/05 06:19:40;;;;;;;16.13;13.40;;;8.50;63.00;;;;;;5068327;28;20537;-41
2020/12/05 06:22:16;;;;;;;13.97;11.13;;;8.80;62.30;;;;;;5057502;28;20206;-41
2020/12/05 06:24:55;;;;;;;12.37;10.27;;;9.10;61.70;;;;;;5061141;28;20442;-41
2020/12/05 06:27:22;;;;;;;12.47;10.27;;;9.20;60.70;;;;;;5069551;28;20430;-41
2020/12/05 06:29:48;;;;;;;15.60;12.07;;;9.50;60.30;;;;;;5058441;28;20453;-41
2020/12/05 06:32:42;;;;;;;15.93;12.20;;;9.60;59.80;;;;;;5061719;28;20908;-42
2020/12/05 06:35:22;;;;;;;13.20;11.07;;;9.80;59.20;;;;;;5066601;28;20460;-41
2020/12/05 06:37:50;;;;;;;13.10;10.37;;;10.00;57.60;;;;;;5063740;28;20487;-41
2020/12/05 06:40:15;;;;;;;15.20;11.47;;;10.10;56.80;;;;;;5069497;28;20524;-41
2020/12/05 06:42:43;;;;;;;11.00;9.90;;;10.20;56.50;;;;;;5071897;28;20516;-41
2020/12/05 06:45:28;;;;;;;9.33;7.87;;;10.40;56.30;;;;;;5062345;28;20280;-41
2020/12/05 06:47:54;;;;;;;9.23;8.10;;;10.50;55.70;;;;;;5065740;28;20485;-42
2020/12/05 06:50:34;;;;;;;11.33;8.50;;;10.60;55.60;;;;;;5068617;28;20470;-42
2020/12/05 06:53:00;;;;;;;13.77;9.30;;;10.70;55.40;;;;;;5068316;28;21102;-41
2020/12/05 06:55:30;;;;;;;10.43;9.30;;;10.80;55.10;;;;;;5061331;28;20427;-42
2020/12/05 06:58:04;;;;;;;12.07;9.70;;;10.80;54.40;;;;;;5072373;28;20204;-41
2020/12/05 07:00:39;;;;;;;14.17;11.30;;;10.70;53.90;;;;;;5066404;28;20852;-41
2020/12/05 07:03:10;;;;;;;10.50;9.10;;;10.70;53.70;;;;;;5056182;28;20771;-41
2020/12/05 07:05:45;;;;;;;9.63;8.63;;;10.50;53.50;;;;;;5057198;28;20427;-41
2020/12/05 07:08:26;;;;;;;9.17;7.40;;;10.30;53.80;;;;;;5063387;28;20529;-41
2020/12/05 07:10:57;;;;;;;11.10;7.90;;;10.10;54.40;;;;;;5064781;28;20865;-41
2020/12/05 07:13:46;;;;;;;9.37;8.37;;;10.00;55.40;;;;;;5064667;28;20808;-41
2020/12/05 07:16:21;;;;;;;16.73;15.00;;;9.80;56.20;;;;;;5059782;28;20447;-41
2020/12/05 07:18:54;;;;;;;12.13;10.13;;;9.70;56.70;;;;;;5066731;28;20444;-41
2020/12/05 07:21:21;;;;;;;10.73;8.70;;;9.50;56.90;;;;;;5056743;28;20989;-41
2020/12/05 07:23:48;;;;;;;10.37;9.20;;;9.40;57.20;;;;;;5066229;28;20470;-41
2020/12/05 07:26:14;;;;;;;9.07;7.77;;;9.20;57.60;;;;;;5069680;28;20944;-41
2020/12/05 07:28:51;;;;;;;11.30;9.00;;;9.20;57.70;;;;;;5063026;28;20858;-41
2020/12/05 07:31:17;;;;;;;12.27;8.37;;;9.10;57.90;;;;;;5057363;28;20469;-41
2020/12/05 07:33:44;;;;;;;10.30;8.30;;;9.10;57.90;;;;;;5067358;28;20438;-41
2020/12/05 07:36:11;;;;;;;9.00;7.60;;;9.10;58.40;;;;;;5067655;28;20466;-41
2020/12/05 07:38:39;;;;;;;9.90;7.63;;;9.00;58.00;;;;;;5070686;28;20437;-41
2020/12/05 07:44:26;;;;;;;10.30;7.70;;;8.90;58.40;;;;;;5111937;23;20520;-41
2020/12/05 07:46:51;;;;;;;10.43;7.83;;;8.80;58.70;;;;;;5011267;28;20800;-41
2020/12/05 07:49:17;;;;;;;9.50;8.50;;;8.90;58.90;;;;;;5013571;28;20189;-41
2020/12/05 07:51:43;;;;;;;18.43;16.63;;;9.00;58.80;;;;;;5012044;28;20226;-42
2020/12/05 07:54:09;;;;;;;19.00;14.80;;;8.90;58.70;;;;;;4993765;28;20195;-41
2020/12/05 07:56:35;;;;;;;14.27;12.87;;;8.90;58.60;;;;;;4993691;28;20434;-41
2020/12/05 07:59:03;;;;;;;18.50;11.70;;;8.80;58.50;;;;;;5007447;28;20926;-41
2020/12/05 08:01:46;;;;;;;12.17;9.70;;;8.80;58.90;;;;;;5016899;28;20197;-41
2020/12/05 08:04:36;;;;;;;14.47;12.33;;;8.80;59.00;;;;;;5010855;28;20948;-41
2020/12/05 08:07:17;;;;;;;16.40;11.23;;;8.70;58.90;;;;;;5006534;28;20433;-41
2020/12/05 08:09:44;;;;;;;14.40;11.83;;;8.60;59.00;;;;;;5006047;28;20523;-41
2020/12/05 08:12:14;;;;;;;15.43;11.70;;;8.50;59.30;;;;;;5012122;28;20484;-41
2020/12/05 08:14:44;;;;;;;17.03;11.20;;;8.50;59.50;;;;;;5011252;28;20440;-41
2020/12/05 08:17:11;;;;;;;19.37;13.53;;;8.30;59.80;;;;;;4993078;28;20448;-41
2020/12/05 08:19:41;;;;;;;15.60;13.30;;;8.10;60.70;;;;;;4993137;28;20434;-41
2020/12/05 08:22:09;;;;;;;20.07;14.47;;;8.10;61.00;;;;;;4992788;28;20440;-41
2020/12/05 08:24:38;;;;;;;16.30;14.33;;;8.10;60.90;;;;;;4992543;28;20422;-41
2020/12/05 08:27:04;;;;;;;17.60;14.10;;;8.00;61.50;;;;;;5006979;28;20437;-41
2020/12/05 08:29:30;;;;;;;17.20;12.20;;;8.10;61.50;;;;;;5006216;28;20495;-41
2020/12/05 08:31:56;;;;;;;16.80;13.00;;;8.10;61.80;;;;;;5001756;28;20597;-41
2020/12/05 08:34:31;;;;;;;15.80;11.13;;;8.20;61.40;;;;;;4992472;28;20501;-41
2020/12/05 08:37:01;;;;;;;14.73;11.57;;;8.20;61.20;;;;;;4999571;28;20288;-41
2020/12/05 08:39:31;;;;;;;16.10;11.70;;;8.00;61.30;;;;;;5006664;28;20442;-41
2020/12/05 08:41:57;;;;;;;21.30;11.70;;;7.90;61.80;;;;;;4992216;28;20437;-41
2020/12/05 08:44:29;;;;;;;13.47;11.03;;;7.90;62.40;;;;;;5001855;28;20478;-41
2020/12/05 08:47:08;;;;;;;13.50;11.20;;;7.90;62.40;;;;;;5008925;28;20436;-41
2020/12/05 08:49:42;;;;;;;12.63;10.83;;;8.10;62.30;;;;;;4992678;28;20422;-41
2020/12/05 08:52:09;;;;;;;13.67;10.60;;;8.00;62.50;;;;;;4996473;28;20480;-41
2020/12/05 08:54:53;;;;;;;19.57;13.10;;;8.20;62.10;;;;;;4992091;28;20448;-41
2020/12/05 08:57:20;;;;;;;16.57;12.50;;;7.50;63.20;;;;;;4994831;28;21301;-41
2020/12/05 08:59:46;;;;;;;17.00;11.57;;;7.50;64.20;;;;;;5018712;28;20432;-41
2020/12/05 09:02:14;;;;;;;18.40;13.13;;;7.50;64.60;;;;;;4995046;28;20434;-41
2020/12/05 09:04:40;;;;;;;19.33;13.73;;;7.40;65.00;;;;;;4990257;28;20517;-41
2020/12/05 09:07:14;;;;;;;17.37;13.07;;;7.30;65.40;;;;;;4991718;28;20568;-41
2020/12/05 09:09:46;;;;;;;17.77;14.10;;;7.30;65.70;;;;;;5009775;28;20828;-41
2020/12/05 09:12:18;;;;;;;18.87;12.80;;;7.40;65.50;;;;;;5004457;28;20491;-41
2020/12/05 09:14:50;;;;;;;14.43;11.33;;;7.30;65.50;;;;;;4991928;28;20426;-41
2020/12/05 09:17:22;;;;;;;18.40;12.33;;;7.30;65.40;;;;;;4991860;28;20587;-41
2020/12/05 09:19:48;;;;;;;16.90;12.00;;;7.30;65.50;;;;;;5006616;28;20479;-41
2020/12/05 09:22:30;;;;;;;19.90;14.03;;;7.20;65.80;;;;;;4992207;28;20472;-41
2020/12/05 09:24:56;;;;;;;18.53;13.03;;;7.00;66.90;;;;;;4991499;28;20200;-41
2020/12/05 09:27:21;;;;;;;15.47;12.37;;;7.00;66.80;;;;;;4991524;28;20517;-41
2020/12/05 09:29:47;;;;;;;18.97;13.37;;;7.10;66.70;;;;;;5000318;28;20595;-41
2020/12/05 09:32:12;;;;;;;21.93;14.40;;;7.30;66.30;;;;;;4999368;28;20226;-41
2020/12/05 09:34:38;;;;;;;15.60;13.10;;;7.50;65.80;;;;;;4991568;28;20651;-41
2020/12/05 09:37:11;;;;;;;15.07;12.57;;;7.40;65.60;;;;;;4991351;28;20217;-41
2020/12/05 09:39:38;;;;;;;23.20;12.43;;;7.30;65.80;;;;;;4995558;28;20197;-41
2020/12/05 09:42:04;;;;;;;18.13;12.77;;;7.20;66.70;;;;;;5010688;28;20436;-41
2020/12/05 09:44:30;;;;;;;17.60;13.57;;;7.20;66.90;;;;;;5002412;28;20971;-41
2020/12/05 09:46:55;;;;;;;19.00;13.87;;;7.20;67.10;;;;;;5007794;28;20281;-41
2020/12/05 09:49:21;;;;;;;17.73;12.37;;;7.30;67.20;;;;;;4991811;28;20556;-41
2020/12/05 09:51:46;;;;;;;16.50;12.83;;;7.50;66.40;;;;;;5005801;28;20249;-41
2020/12/05 09:54:12;;;;;;;14.67;11.93;;;7.60;66.50;;;;;;4991206;28;20533;-41
2020/12/05 09:56:37;;;;;;;17.33;13.37;;;7.60;65.50;;;;;;4996392;28;20204;-41
2020/12/05 09:59:03;;;;;;;15.30;12.80;;;7.60;66.30;;;;;;5010727;28;20208;-41
2020/12/05 10:01:29;;;;;;;16.00;12.87;;;7.60;65.80;;;;;;5010875;28;20205;-41
2020/12/05 10:03:55;;;;;;;18.00;12.70;;;7.50;65.90;;;;;;5006766;28;20205;-41
2020/12/05 10:06:21;;;;;;;16.70;13.40;;;7.50;66.50;;;;;;5002397;28;20547;-41
2020/12/05 10:08:47;;;;;;;16.47;12.70;;;7.40;66.40;;;;;;5008293;28;20468;-41
2020/12/05 10:11:13;;;;;;;14.27;12.57;;;7.40;66.90;;;;;;5009213;28;20473;-41
2020/12/05 10:13:38;;;;;;;15.67;12.83;;;7.40;66.80;;;;;;5007596;28;20283;-42
2020/12/05 10:16:04;;;;;;;16.17;12.10;;;7.60;66.60;;;;;;5005403;28;20273;-42
2020/12/05 10:18:29;;;;;;;15.40;12.23;;;7.40;66.80;;;;;;5000240;28;20277;-42
2020/12/05 10:20:55;;;;;;;15.07;12.70;;;7.60;67.00;;;;;;5002765;28;20194;-42
2020/12/05 10:23:21;;;;;;;12.87;11.00;;;7.90;66.00;;;;;;4998854;28;20190;-41
2020/12/05 10:25:46;;;;;;;15.60;11.17;;;8.00;65.30;;;;;;5003864;28;20202;-42
2020/12/05 10:28:12;;;;;;;14.90;11.17;;;7.90;65.20;;;;;;5006621;28;20190;-42
2020/12/05 10:30:37;;;;;;;13.83;10.00;;;8.00;65.10;;;;;;5004892;28;20194;-42
2020/12/05 10:33:03;;;;;;;14.17;11.30;;;7.80;65.40;;;;;;5001853;28;20237;-42
2020/12/05 10:35:28;;;;;;;15.57;12.63;;;7.90;65.60;;;;;;5007704;28;20418;-45
2020/12/05 10:37:54;;;;;;;19.20;14.33;;;8.00;66.00;;;;;;5008899;28;20276;-42
2020/12/05 10:40:19;;;;;;;15.20;12.30;;;7.80;65.60;;;;;;5010187;28;20563;-42
2020/12/05 10:42:45;;;;;;;13.27;10.80;;;7.60;66.70;;;;;;5000806;28;20249;-42
2020/12/05 10:45:11;;;;;;;15.47;11.83;;;7.60;66.40;;;;;;5001436;28;20325;-42
2020/12/05 10:47:36;;;;;;;14.70;11.60;;;7.40;67.20;;;;;;5007997;28;20190;-42
2020/12/05 10:50:02;;;;;;;16.20;12.60;;;7.40;67.60;;;;;;5008588;28;20202;-42
2020/12/05 10:52:28;;;;;;;15.13;13.53;;;7.40;67.90;;;;;;5002902;28;20222;-41
2020/12/05 10:54:53;;;;;;;16.23;14.00;;;7.50;67.50;;;;;;5002679;28;20680;-42
2020/12/05 10:57:19;;;;;;;14.87;13.30;;;7.70;67.20;;;;;;5005247;28;20213;-41
2020/12/05 10:59:44;;;;;;;16.03;12.83;;;7.70;66.50;;;;;;5011804;28;20205;-42
2020/12/05 11:02:10;;;;;;;19.70;13.63;;;7.60;66.70;;;;;;5004360;28;20190;-42
2020/12/05 11:04:35;;;;;;;16.40;13.40;;;7.60;67.00;;;;;;5006929;28;20212;-41
2020/12/05 11:07:01;;;;;;;19.57;14.00;;;7.60;67.10;;;;;;4999212;28;20198;-41
2020/12/05 11:09:27;;;;;;;18.77;13.90;;;7.50;67.10;;;;;;5009137;28;20216;-42
2020/12/05 11:11:52;;;;;;;19.00;14.33;;;7.50;67.60;;;;;;5012761;28;20237;-41
2020/12/05 11:14:18;;;;;;;17.13;12.90;;;7.50;68.10;;;;;;5012659;28;20201;-41
2020/12/05 11:16:43;;;;;;;13.23;11.83;;;7.80;67.50;;;;;;5012803;28;20967;-41
2020/12/05 11:19:09;;;;;;;19.60;14.20;;;7.70;66.60;;;;;;5008243;28;20241;-42
2020/12/05 11:21:34;;;;;;;15.40;13.50;;;7.80;66.70;;;;;;5005727;28;20635;-41
2020/12/05 11:24:00;;;;;;;15.40;12.50;;;7.70;67.10;;;;;;5012700;28;20201;-42
2020/12/05 11:26:26;;;;;;;20.33;14.10;;;7.60;67.50;;;;;;5011505;28;20244;-42
2020/12/05 11:28:51;;;;;;;18.13;14.60;;;7.70;67.70;;;;;;5005327;28;20599;-41
2020/12/05 11:31:17;;;;;;;20.67;15.10;;;8.00;67.10;;;;;;5011896;28;20255;-41
2020/12/05 11:33:43;;;;;;;18.43;13.40;;;8.10;66.40;;;;;;5011775;28;20205;-41
2020/12/05 11:36:09;;;;;;;14.47;12.93;;;8.20;66.20;;;;;;5012115;28;21229;-41
2020/12/05 11:38:35;;;;;;;17.23;13.00;;;8.30;65.90;;;;;;5007747;28;20209;-41
2020/12/05 11:41:00;;;;;;;17.33;14.43;;;8.30;65.80;;;;;;5003751;28;20441;-41
2020/12/05 11:43:26;;;;;;;15.03;13.23;;;8.30;66.10;;;;;;5007762;28;20232;-41
2020/12/05 11:45:52;;;;;;;15.47;12.90;;;8.50;65.80;;;;;;5006362;28;20198;-41
2020/12/05 11:48:17;;;;;;;18.07;14.07;;;8.50;64.90;;;;;;5009660;28;20197;-42
2020/12/05 11:50:43;;;;;;;16.00;12.80;;;8.30;65.20;;;;;;5005025;28;20299;-41
2020/12/05 11:53:08;;;;;;;18.57;13.43;;;8.30;66.00;;;;;;5011085;28;20804;-41
2020/12/05 11:55:34;;;;;;;16.17;12.47;;;7.80;67.10;;;;;;5011272;28;20221;-41
2020/12/05 11:58:00;;;;;;;13.70;12.07;;;7.70;68.20;;;;;;5011425;28;20202;-41
2020/12/05 12:00:26;;;;;;;16.97;13.33;;;7.80;67.90;;;;;;5015025;28;20437;-41
2020/12/05 12:02:55;;;;;;;15.30;13.53;;;7.90;67.90;;;;;;5011508;28;20437;-41
2020/12/05 12:05:21;;;;;;;14.70;12.50;;;7.70;68.30;;;;;;5011664;28;20528;-41
2020/12/05 12:07:46;;;;;;;17.50;13.83;;;7.80;68.70;;;;;;5010852;28;20444;-41
2020/12/05 12:10:12;;;;;;;17.70;14.23;;;7.70;68.70;;;;;;5004223;28;20440;-41
2020/12/05 12:12:38;;;;;;;16.53;13.87;;;7.70;68.80;;;;;;5010704;28;20624;-41
2020/12/05 12:15:04;;;;;;;17.83;13.83;;;7.60;69.10;;;;;;5003974;28;20209;-41
2020/12/05 12:17:29;;;;;;;15.00;11.93;;;7.60;69.30;;;;;;4999212;28;20197;-41
2020/12/05 12:19:55;;;;;;;14.70;12.03;;;7.70;69.40;;;;;;5011323;28;20194;-41
2020/12/05 12:22:20;;;;;;;17.70;11.40;;;7.70;69.80;;;;;;5010655;28;20273;-41
2020/12/05 12:24:46;;;;;;;13.70;11.47;;;7.70;69.10;;;;;;5011813;28;20225;-41
2020/12/05 12:27:11;;;;;;;14.10;10.00;;;7.80;68.50;;;;;;5005702;28;20212;-41
2020/12/05 12:29:37;;;;;;;11.03;9.83;;;7.70;68.90;;;;;;5001696;28;20206;-41
2020/12/05 12:32:03;;;;;;;13.20;10.17;;;7.70;69.20;;;;;;5008723;28;20253;-41
2020/12/05 12:34:29;;;;;;;12.40;10.13;;;7.80;69.00;;;;;;5009580;28;20197;-41
2020/12/05 12:36:55;;;;;;;11.97;9.97;;;8.00;68.20;;;;;;5009883;28;20433;-41
2020/12/05 12:39:20;;;;;;;14.37;10.97;;;8.10;67.90;;;;;;5010430;28;20659;-40
2020/12/05 12:41:46;;;;;;;13.20;10.63;;;8.30;67.10;;;;;;5004111;28;20193;-41
2020/12/05 12:44:11;;;;;;;13.47;11.13;;;8.50;66.40;;;;;;5009916;28;20245;-41
2020/12/05 12:46:46;;;;;;;14.30;11.87;;;8.40;66.20;;;;;;5008463;28;20201;-42